Time;durP1;ratioP1;P1;durP2;ratioP2;P2;SDS_P1;SDS_P2;PMS_P1;PMS_P2;Temp;Humidity;BMP_temperature;BMP_pressure;BME280_temperature;BME280_humidity;BME280_pressure;Samples;Min_cycle;Max_cycle;Signal;HPM_P1;HPM_P2
2021/05/22 00:00:00;;;;;;;6.57;2.78;;;14.40;99.90;;;;;;4735045;30;20187;-83
2021/05/22 00:02:26;;;;;;;4.70;2.75;;;14.40;99.90;;;;;;4719111;30;20522;-83
2021/05/22 00:04:52;;;;;;;4.88;2.60;;;14.30;99.90;;;;;;4734782;30;20218;-83
2021/05/22 00:07:18;;;;;;;4.47;2.38;;;14.30;99.90;;;;;;4734945;30;20215;-85
2021/05/22 00:09:46;;;;;;;4.57;2.60;;;14.20;99.90;;;;;;4719740;30;20278;-83
2021/05/22 00:12:13;;;;;;;5.47;2.85;;;14.20;99.90;;;;;;4720295;30;20199;-83
2021/05/22 00:14:39;;;;;;;3.00;2.28;;;14.20;99.90;;;;;;4719128;30;20335;-83
2021/05/22 00:17:06;;;;;;;4.60;2.50;;;14.10;99.90;;;;;;4735003;30;20663;-83
2021/05/22 00:19:31;;;;;;;3.88;2.80;;;14.10;99.90;;;;;;4719274;30;20207;-83
2021/05/22 00:21:57;;;;;;;4.13;2.45;;;14.10;99.90;;;;;;4735074;30;20331;-82
2021/05/22 00:24:23;;;;;;;4.55;2.45;;;14.20;99.90;;;;;;4735326;30;20198;-83
2021/05/22 00:26:48;;;;;;;5.25;3.00;;;14.10;99.90;;;;;;4734782;30;20215;-83
2021/05/22 00:29:14;;;;;;;4.10;2.70;;;14.10;99.90;;;;;;4719107;30;20192;-83
2021/05/22 00:31:40;;;;;;;6.35;2.95;;;14.10;99.90;;;;;;4734925;30;20647;-83
2021/05/22 00:34:05;;;;;;;4.78;2.55;;;14.00;99.90;;;;;;4704668;30;20188;-83
2021/05/22 00:36:31;;;;;;;3.72;2.55;;;14.00;99.90;;;;;;4690044;30;20199;-83
2021/05/22 00:38:57;;;;;;;4.55;2.80;;;14.00;99.90;;;;;;4735178;30;20194;-83
2021/05/22 00:41:22;;;;;;;7.65;2.47;;;14.00;99.90;;;;;;4704229;30;20199;-83
2021/05/22 00:43:48;;;;;;;5.00;2.67;;;13.90;99.90;;;;;;4719598;30;20187;-83
2021/05/22 00:46:14;;;;;;;4.70;2.33;;;13.90;99.90;;;;;;4719165;30;20199;-83
2021/05/22 00:48:40;;;;;;;4.45;2.75;;;13.90;99.90;;;;;;4704561;30;20202;-83
2021/05/22 00:51:06;;;;;;;6.25;3.13;;;13.90;99.90;;;;;;4704804;30;20192;-83
2021/05/22 00:53:32;;;;;;;5.13;3.13;;;13.80;99.90;;;;;;4734532;30;20211;-83
2021/05/22 00:56:02;;;;;;;5.63;2.80;;;13.80;99.90;;;;;;4734601;30;20223;-83
2021/05/22 00:58:28;;;;;;;3.75;2.67;;;13.80;99.90;;;;;;4734682;30;20219;-83
2021/05/22 01:00:58;;;;;;;5.60;2.90;;;13.80;99.90;;;;;;4734465;30;20270;-83
2021/05/22 01:03:39;;;;;;;4.75;2.80;;;13.70;99.90;;;;;;4719721;30;20179;-84
2021/05/22 01:06:15;;;;;;;4.30;2.55;;;13.70;99.90;;;;;;4718576;30;20226;-83
2021/05/22 01:08:45;;;;;;;6.68;2.97;;;13.60;99.90;;;;;;4734180;30;20244;-83
2021/05/22 01:11:25;;;;;;;4.38;2.80;;;13.60;99.90;;;;;;4734561;30;20630;-83
2021/05/22 01:13:59;;;;;;;6.53;3.00;;;13.50;99.90;;;;;;4735149;30;20233;-83
2021/05/22 01:16:25;;;;;;;5.70;2.78;;;13.40;99.90;;;;;;4722810;30;20202;-87
2021/05/22 01:18:53;;;;;;;4.97;3.17;;;13.40;99.90;;;;;;4738115;30;20183;-83
2021/05/22 01:21:20;;;;;;;6.05;2.80;;;13.30;99.90;;;;;;4737946;30;20235;-83
2021/05/22 01:23:57;;;;;;;4.82;2.83;;;13.20;99.90;;;;;;4737622;30;20270;-83
2021/05/22 01:26:24;;;;;;;7.15;3.10;;;13.20;99.90;;;;;;4722005;30;20187;-82
2021/05/22 01:28:51;;;;;;;4.40;2.72;;;13.00;99.90;;;;;;4737473;30;20190;-83
2021/05/22 01:31:17;;;;;;;3.58;2.70;;;12.90;99.90;;;;;;4737639;30;20215;-83
2021/05/22 01:33:43;;;;;;;5.20;2.90;;;12.90;99.90;;;;;;4721928;30;20727;-83
2021/05/22 01:36:09;;;;;;;5.43;2.97;;;12.90;99.90;;;;;;4721887;30;20282;-83
2021/05/22 01:38:35;;;;;;;3.88;2.30;;;12.90;99.90;;;;;;4721843;30;20270;-83
2021/05/22 01:41:00;;;;;;;4.90;3.10;;;12.80;99.90;;;;;;4737486;30;20223;-83
2021/05/22 01:43:26;;;;;;;4.70;2.80;;;12.80;99.90;;;;;;4737674;30;20180;-83
2021/05/22 01:45:54;;;;;;;4.07;2.63;;;12.80;99.90;;;;;;4737436;30;20217;-83
2021/05/22 01:48:24;;;;;;;4.00;2.60;;;12.80;99.90;;;;;;4721840;30;20315;-83
2021/05/22 01:50:57;;;;;;;4.43;2.58;;;12.80;99.90;;;;;;4737343;30;20176;-83
2021/05/22 01:53:23;;;;;;;4.47;2.65;;;12.80;99.90;;;;;;4723016;30;20191;-83
2021/05/22 01:55:50;;;;;;;3.30;2.40;;;12.70;99.90;;;;;;4706979;30;20187;-83
2021/05/22 01:58:16;;;;;;;4.60;2.13;;;12.70;99.90;;;;;;4706976;30;20629;-83
2021/05/22 02:00:44;;;;;;;4.75;2.40;;;12.70;99.90;;;;;;4736882;30;20188;-83
2021/05/22 02:03:18;;;;;;;4.72;2.67;;;12.70;99.90;;;;;;4707500;30;20282;-83
2021/05/22 02:05:46;;;;;;;3.08;2.05;;;12.60;99.90;;;;;;4737128;30;20187;-83
2021/05/22 02:08:16;;;;;;;3.83;2.38;;;12.60;99.90;;;;;;4737069;30;20219;-83
2021/05/22 02:10:42;;;;;;;3.25;2.35;;;12.60;99.90;;;;;;4736794;30;20221;-83
2021/05/22 02:13:08;;;;;;;3.00;2.58;;;12.60;99.90;;;;;;4721083;30;20717;-82
2021/05/22 02:15:37;;;;;;;3.70;2.20;;;12.50;99.90;;;;;;4720821;30;20192;-84
2021/05/22 02:18:05;;;;;;;4.15;3.08;;;12.50;99.90;;;;;;4721184;30;20204;-83
2021/05/22 02:20:33;;;;;;;6.57;2.55;;;12.40;99.90;;;;;;4737173;30;20320;-83
2021/05/22 02:23:03;;;;;;;4.78;2.45;;;12.40;99.90;;;;;;4720864;30;20195;-82
2021/05/22 02:25:29;;;;;;;8.05;3.83;;;12.40;99.90;;;;;;4720582;30;20329;-82
2021/05/22 02:27:58;;;;;;;4.18;2.88;;;12.40;99.90;;;;;;4736072;30;20773;-83
2021/05/22 02:30:25;;;;;;;9.30;2.70;;;12.30;99.90;;;;;;4736804;30;20206;-82
2021/05/22 02:32:51;;;;;;;4.40;3.30;;;12.30;99.90;;;;;;4736481;30;20191;-83
2021/05/22 02:35:19;;;;;;;6.03;2.97;;;12.30;99.90;;;;;;4721000;30;20326;-83
2021/05/22 02:37:48;;;;;;;4.13;2.55;;;12.30;99.90;;;;;;4705930;30;20188;-83
2021/05/22 02:40:18;;;;;;;6.78;3.15;;;12.20;99.90;;;;;;4736353;30;20202;-83
2021/05/22 02:42:50;;;;;;;7.30;2.90;;;12.30;99.90;;;;;;4736444;30;20176;-83
2021/05/22 02:45:18;;;;;;;4.40;2.80;;;12.30;99.90;;;;;;4736613;30;20191;-82
2021/05/22 02:47:46;;;;;;;4.10;2.42;;;12.30;99.90;;;;;;4736103;30;20269;-83
2021/05/22 02:50:13;;;;;;;8.90;2.92;;;12.30;99.90;;;;;;4736273;30;20188;-81
2021/05/22 02:52:39;;;;;;;4.57;3.05;;;12.30;99.90;;;;;;4706026;30;20584;-88
2021/05/22 02:55:09;;;;;;;4.32;3.03;;;12.30;99.90;;;;;;4736166;30;20190;-82
2021/05/22 02:57:37;;;;;;;5.18;3.20;;;12.30;99.90;;;;;;4736254;30;20356;-81
2021/05/22 03:00:05;;;;;;;5.43;2.55;;;12.30;99.90;;;;;;4735910;30;20190;-82
2021/05/22 03:02:33;;;;;;;5.32;2.80;;;12.30;99.90;;;;;;4736086;30;20245;-82
2021/05/22 03:05:00;;;;;;;4.97;2.95;;;12.30;99.90;;;;;;4735938;30;20184;-82
2021/05/22 03:07:26;;;;;;;6.10;3.38;;;12.30;99.90;;;;;;4720685;30;20211;-81
2021/05/22 03:09:52;;;;;;;3.67;2.65;;;12.30;99.90;;;;;;4736520;30;20681;-81
2021/05/22 03:12:21;;;;;;;4.78;2.65;;;12.30;99.90;;;;;;4720612;30;20196;-82
2021/05/22 03:14:47;;;;;;;7.50;3.42;;;12.20;99.90;;;;;;4735944;30;20649;-82
2021/05/22 03:17:13;;;;;;;6.20;3.50;;;12.20;99.90;;;;;;4736238;30;20207;-81
2021/05/22 03:19:38;;;;;;;6.68;3.10;;;12.20;99.90;;;;;;4737105;30;20205;-82
2021/05/22 03:22:04;;;;;;;6.47;3.47;;;12.20;99.90;;;;;;4720533;30;20203;-81
2021/05/22 03:24:30;;;;;;;7.03;3.30;;;12.20;99.90;;;;;;4706340;30;20195;-81
2021/05/22 03:26:57;;;;;;;8.45;3.33;;;12.30;99.90;;;;;;4721600;30;20281;-81
2021/05/22 03:29:23;;;;;;;6.85;3.08;;;12.30;99.90;;;;;;4742822;30;20217;-82
2021/05/22 03:31:48;;;;;;;6.75;3.03;;;12.30;99.90;;;;;;4723683;30;20187;-82
2021/05/22 03:34:14;;;;;;;5.05;3.17;;;12.40;99.90;;;;;;4738340;30;20294;-82
2021/05/22 03:36:40;;;;;;;5.53;3.50;;;12.40;99.90;;;;;;4706697;30;20191;-81
2021/05/22 03:39:06;;;;;;;5.50;2.90;;;12.40;99.90;;;;;;4724123;30;20226;-81
2021/05/22 03:41:32;;;;;;;5.57;3.20;;;12.40;99.90;;;;;;4724911;30;20191;-81
2021/05/22 03:43:57;;;;;;;10.75;5.93;;;12.50;99.90;;;;;;4740230;30;20232;-81
2021/05/22 03:46:23;;;;;;;7.55;3.40;;;12.60;99.90;;;;;;4706701;30;20200;-82
2021/05/22 03:48:49;;;;;;;8.60;3.22;;;12.60;99.90;;;;;;4735176;30;20198;-82
2021/05/22 03:51:15;;;;;;;8.95;3.40;;;12.60;99.90;;;;;;4719625;30;20654;-81
2021/05/22 03:53:40;;;;;;;6.80;3.05;;;12.70;99.90;;;;;;4735104;30;20642;-82
2021/05/22 03:56:06;;;;;;;8.93;7.03;;;12.80;99.90;;;;;;4704837;30;20676;-82
2021/05/22 03:58:32;;;;;;;5.57;3.47;;;12.80;99.90;;;;;;4735614;30;20203;-82
2021/05/22 04:00:57;;;;;;;8.40;3.25;;;12.90;99.90;;;;;;4734994;30;20190;-83
2021/05/22 04:03:24;;;;;;;11.88;3.13;;;12.90;99.90;;;;;;4735300;30;20187;-82
2021/05/22 04:05:50;;;;;;;5.32;2.97;;;13.00;99.90;;;;;;4719265;30;20273;-82
2021/05/22 04:08:16;;;;;;;9.30;3.28;;;13.00;99.90;;;;;;4734972;30;20215;-83
2021/05/22 04:10:41;;;;;;;7.18;3.40;;;13.10;99.90;;;;;;4719456;30;20278;-82
2021/05/22 04:13:08;;;;;;;3.45;2.75;;;13.20;99.90;;;;;;4734852;30;20223;-84
2021/05/22 04:15:33;;;;;;;3.88;2.83;;;13.20;99.90;;;;;;4704966;30;20196;-82
2021/05/22 04:17:59;;;;;;;3.33;2.85;;;13.30;99.90;;;;;;4734947;30;20191;-82
2021/05/22 04:20:25;;;;;;;5.68;2.97;;;13.30;99.90;;;;;;4718989;30;20303;-83
2021/05/22 04:22:50;;;;;;;4.93;3.63;;;13.30;99.90;;;;;;4719500;30;20302;-83
2021/05/22 04:25:16;;;;;;;4.50;2.97;;;13.30;99.90;;;;;;4716149;30;20305;-84
2021/05/22 04:27:42;;;;;;;4.13;3.08;;;13.40;99.90;;;;;;4731598;30;20247;-84
2021/05/22 04:30:08;;;;;;;6.05;3.47;;;13.60;99.90;;;;;;4733080;30;20226;-82
2021/05/22 04:32:34;;;;;;;5.03;3.13;;;13.70;99.90;;;;;;4702872;30;20633;-83
2021/05/22 04:35:00;;;;;;;4.75;2.67;;;13.80;99.90;;;;;;4743502;30;20270;-84
2021/05/22 04:37:26;;;;;;;5.10;2.45;;;14.00;99.90;;;;;;4702675;30;20199;-84
2021/05/22 04:39:52;;;;;;;4.45;2.72;;;14.10;99.90;;;;;;4717286;30;20601;-82
2021/05/22 04:42:18;;;;;;;5.30;2.20;;;14.20;99.90;;;;;;4729252;30;20210;-83
2021/05/22 04:44:43;;;;;;;3.65;2.30;;;14.30;99.90;;;;;;4689960;30;20212;-83
2021/05/22 04:47:09;;;;;;;5.03;2.58;;;14.40;99.90;;;;;;4717833;30;20215;-82
2021/05/22 04:49:35;;;;;;;3.33;2.47;;;14.50;99.90;;;;;;4712699;30;20259;-84
2021/05/22 04:52:00;;;;;;;4.88;2.47;;;14.60;99.90;;;;;;4704590;30;20253;-83
2021/05/22 04:54:27;;;;;;;5.50;2.05;;;;;;;;;;4705149;30;20306;-83
2021/05/22 04:56:53;;;;;;;2.97;2.10;;;14.80;99.90;;;;;;4719685;30;20191;-82
2021/05/22 04:59:19;;;;;;;2.75;1.98;;;15.00;99.90;;;;;;4733230;30;20249;-82
2021/05/22 05:01:44;;;;;;;3.78;2.30;;;15.10;99.90;;;;;;4706239;30;20701;-83
2021/05/22 05:04:10;;;;;;;2.55;1.90;;;15.20;99.90;;;;;;4717374;30;20231;-83
2021/05/22 05:06:36;;;;;;;2.17;1.90;;;15.30;99.90;;;;;;4720779;30;20254;-84
2021/05/22 05:09:03;;;;;;;3.30;1.90;;;15.40;99.90;;;;;;4725620;30;20203;-85
2021/05/22 05:11:30;;;;;;;2.55;1.98;;;15.50;99.90;;;;;;4730090;30;20226;-83
2021/05/22 05:13:56;;;;;;;1.80;1.70;;;15.60;99.90;;;;;;4721384;30;20223;-88
2021/05/22 05:16:22;;;;;;;4.15;2.38;;;15.50;99.90;;;;;;4719970;30;20238;-84
2021/05/22 05:18:48;;;;;;;2.40;1.70;;;15.40;99.90;;;;;;4733331;30;20199;-84
2021/05/22 05:21:14;;;;;;;3.00;2.10;;;15.50;99.90;;;;;;4719403;30;20609;-84
2021/05/22 05:23:40;;;;;;;5.30;2.38;;;15.60;99.90;;;;;;4705950;30;20206;-84
2021/05/22 05:26:06;;;;;;;2.22;2.00;;;15.70;99.90;;;;;;4711423;30;20234;-84
2021/05/22 05:28:32;;;;;;;3.58;2.20;;;15.80;99.90;;;;;;4715348;30;20242;-84
2021/05/22 05:30:58;;;;;;;2.47;2.00;;;15.90;99.90;;;;;;4731959;30;20241;-84
2021/05/22 05:33:24;;;;;;;4.53;2.33;;;15.90;99.90;;;;;;4713897;30;20234;-84
2021/05/22 05:35:50;;;;;;;2.20;1.98;;;16.00;99.90;;;;;;4707685;30;20211;-84
2021/05/22 05:38:16;;;;;;;2.97;2.45;;;15.80;99.90;;;;;;4702616;30;20230;-82
2021/05/22 05:40:42;;;;;;;8.82;3.70;;;15.80;99.90;;;;;;4705242;30;20192;-84
2021/05/22 05:43:13;;;;;;;3.70;2.85;;;15.70;99.90;;;;;;4719934;30;20180;-86
2021/05/22 05:45:40;;;;;;;6.55;2.58;;;15.70;99.90;;;;;;4732514;30;20183;-85
2021/05/22 05:48:07;;;;;;;2.80;2.28;;;15.80;99.90;;;;;;4687922;30;20221;-85
2021/05/22 05:50:33;;;;;;;3.53;1.75;;;15.90;99.90;;;;;;4704823;30;20253;-86
2021/05/22 05:52:59;;;;;;;3.88;2.00;;;15.90;99.90;;;;;;4720116;30;20199;-85
2021/05/22 05:55:26;;;;;;;5.65;3.10;;;16.00;99.90;;;;;;4721439;30;20196;-85
2021/05/22 05:57:53;;;;;;;5.70;3.70;;;15.80;99.90;;;;;;4718214;30;20215;-85
2021/05/22 06:00:19;;;;;;;3.70;2.28;;;15.80;99.90;;;;;;4702203;30;20734;-86
2021/05/22 06:02:46;;;;;;;3.63;2.30;;;15.90;99.90;;;;;;4718144;30;20547;-85
2021/05/22 06:05:13;;;;;;;5.07;2.03;;;16.10;99.90;;;;;;4729891;30;20249;-84
2021/05/22 06:07:38;;;;;;;4.45;2.17;;;16.10;99.90;;;;;;4694586;30;20242;-85
2021/05/22 06:10:06;;;;;;;6.53;2.75;;;16.30;99.90;;;;;;4711972;30;20222;-84
2021/05/22 06:12:32;;;;;;;4.75;2.53;;;16.30;99.90;;;;;;4706391;30;20199;-85
2021/05/22 06:15:07;;;;;;;9.93;2.90;;;16.20;99.90;;;;;;4710472;30;20226;-83
2021/05/22 06:17:33;;;;;;;5.80;2.60;;;16.20;99.90;;;;;;4706776;30;20226;-83
2021/05/22 06:19:58;;;;;;;2.75;2.33;;;16.10;99.90;;;;;;4735322;30;20766;-83
2021/05/22 06:22:24;;;;;;;3.03;2.00;;;16.00;99.90;;;;;;4720104;30;20685;-81
2021/05/22 06:24:49;;;;;;;6.93;2.33;;;15.90;99.90;;;;;;4736235;30;20192;-81
2021/05/22 06:27:15;;;;;;;3.83;2.30;;;15.90;99.90;;;;;;4720403;30;20223;-82
2021/05/22 06:29:41;;;;;;;4.68;2.10;;;15.80;99.90;;;;;;4720578;30;20602;-81
2021/05/22 06:32:06;;;;;;;7.20;2.33;;;15.80;99.90;;;;;;4720556;30;20524;-82
2021/05/22 06:34:34;;;;;;;3.70;2.22;;;15.70;99.90;;;;;;4736818;30;20736;-81
2021/05/22 06:36:59;;;;;;;6.95;2.70;;;15.80;99.90;;;;;;4736595;30;20278;-82
2021/05/22 06:39:25;;;;;;;2.55;2.35;;;15.90;99.90;;;;;;4736420;30;20295;-81
2021/05/22 06:41:51;;;;;;;4.35;2.45;;;16.00;99.90;;;;;;4736448;30;20270;-82
2021/05/22 06:44:23;;;;;;;2.92;2.17;;;16.00;99.90;;;;;;4720484;30;20192;-81
2021/05/22 06:46:49;;;;;;;2.47;1.83;;;16.20;99.90;;;;;;4721935;30;20219;-81
2021/05/22 06:49:15;;;;;;;3.10;2.10;;;16.40;99.90;;;;;;4736320;30;20345;-83
2021/05/22 06:51:41;;;;;;;2.75;2.30;;;16.60;99.90;;;;;;4736204;30;20187;-82
2021/05/22 06:54:07;;;;;;;3.05;2.28;;;;;;;;;;4736101;30;20477;-82
2021/05/22 06:56:33;;;;;;;2.13;1.92;;;17.10;99.90;;;;;;4736237;30;20187;-83
2021/05/22 06:58:59;;;;;;;4.00;2.63;;;17.10;99.90;;;;;;4720139;30;20203;-82
2021/05/22 07:01:26;;;;;;;3.25;2.20;;;17.30;99.90;;;;;;4693600;30;20192;-82
2021/05/22 07:03:53;;;;;;;1.83;1.73;;;17.40;99.90;;;;;;4718814;30;20654;-82
2021/05/22 07:06:19;;;;;;;6.43;2.28;;;17.50;99.90;;;;;;4703955;30;20188;-82
2021/05/22 07:08:44;;;;;;;2.33;1.92;;;17.60;99.90;;;;;;4688918;30;20210;-81
2021/05/22 07:11:10;;;;;;;2.70;2.10;;;17.70;99.90;;;;;;4703954;30;20666;-82
2021/05/22 07:13:35;;;;;;;2.75;2.20;;;17.70;99.90;;;;;;4688096;30;20250;-82
2021/05/22 07:16:01;;;;;;;7.28;2.00;;;17.60;99.90;;;;;;4718522;30;20651;-81
2021/05/22 07:18:27;;;;;;;3.65;2.53;;;17.50;99.90;;;;;;4718389;30;20188;-82
2021/05/22 07:20:52;;;;;;;4.90;2.35;;;17.50;99.90;;;;;;4682640;30;20590;-82
2021/05/22 07:23:18;;;;;;;2.30;2.10;;;17.50;99.90;;;;;;4734657;30;20198;-89
2021/05/22 07:25:44;;;;;;;4.57;2.30;;;17.50;99.90;;;;;;4734830;30;20603;-82
2021/05/22 07:28:14;;;;;;;2.92;2.42;;;17.50;99.90;;;;;;4735594;30;20320;-82
2021/05/22 07:30:40;;;;;;;8.85;2.50;;;17.40;99.90;;;;;;4719653;30;20239;-83
2021/05/22 07:33:05;;;;;;;5.75;2.50;;;17.40;99.90;;;;;;4735369;30;20685;-82
2021/05/22 07:35:31;;;;;;;3.80;1.90;;;17.50;99.90;;;;;;4735350;30;20187;-81
2021/05/22 07:37:57;;;;;;;2.88;1.95;;;17.40;99.90;;;;;;4705452;30;20188;-82
2021/05/22 07:40:22;;;;;;;2.22;1.80;;;17.40;99.90;;;;;;4719477;30;20610;-81
2021/05/22 07:42:48;;;;;;;2.20;1.83;;;17.40;99.90;;;;;;4734298;30;20197;-81
2021/05/22 07:45:15;;;;;;;4.47;2.15;;;17.40;99.90;;;;;;4734392;30;20196;-82
2021/05/22 07:47:41;;;;;;;2.65;2.00;;;17.40;99.90;;;;;;4733921;30;20222;-81
2021/05/22 07:50:08;;;;;;;3.65;2.17;;;17.40;99.90;;;;;;4718820;30;20200;-83
2021/05/22 07:52:33;;;;;;;2.40;1.98;;;17.40;99.90;;;;;;4732568;30;20191;-82
2021/05/22 07:54:59;;;;;;;3.63;1.80;;;;;;;;;;4717645;30;20198;-82
2021/05/22 07:57:25;;;;;;;5.85;2.15;;;17.60;99.90;;;;;;4717342;30;20562;-82
2021/05/22 07:59:51;;;;;;;5.35;1.85;;;17.60;99.90;;;;;;4734184;30;20187;-83
2021/05/22 08:02:17;;;;;;;5.03;1.95;;;17.60;99.90;;;;;;4717886;30;20195;-82
2021/05/22 08:04:43;;;;;;;4.15;1.88;;;17.70;99.90;;;;;;4733296;30;20190;-83
2021/05/22 08:07:09;;;;;;;1.58;1.48;;;17.70;99.90;;;;;;4719127;30;20309;-81
2021/05/22 08:09:35;;;;;;;2.20;1.90;;;17.90;99.90;;;;;;4733660;30;20283;-81
2021/05/22 08:12:00;;;;;;;2.33;1.88;;;17.90;99.90;;;;;;4719061;30;20193;-81
2021/05/22 08:14:27;;;;;;;2.65;1.63;;;17.90;99.90;;;;;;4735057;30;20702;-82
2021/05/22 08:16:52;;;;;;;1.60;1.50;;;17.90;99.90;;;;;;4735658;30;20203;-81
2021/05/22 08:19:18;;;;;;;11.25;3.35;;;17.90;99.90;;;;;;4735112;30;20538;-81
2021/05/22 08:21:44;;;;;;;5.32;1.90;;;17.90;99.90;;;;;;4733311;30;20251;-81
2021/05/22 08:24:10;;;;;;;4.43;1.88;;;17.90;99.90;;;;;;4734182;30;20297;-81
2021/05/22 08:26:38;;;;;;;5.38;1.90;;;18.00;99.90;;;;;;4733802;30;20245;-82
2021/05/22 08:29:04;;;;;;;2.33;1.98;;;18.10;99.90;;;;;;4733979;30;20195;-81
2021/05/22 08:31:32;;;;;;;5.30;2.20;;;18.10;99.90;;;;;;4734421;30;20218;-82
2021/05/22 08:33:59;;;;;;;5.43;1.90;;;18.10;99.90;;;;;;4735073;30;20274;-82
2021/05/22 08:36:25;;;;;;;1.90;1.70;;;18.00;99.90;;;;;;4733851;30;20250;-81
2021/05/22 08:38:51;;;;;;;2.63;1.80;;;18.00;99.90;;;;;;4735105;30;20685;-81
2021/05/22 08:41:17;;;;;;;6.97;3.45;;;17.90;99.90;;;;;;4733770;30;20223;-82
2021/05/22 08:43:43;;;;;;;6.13;1.88;;;17.80;99.90;;;;;;4735498;30;20218;-81
2021/05/22 08:46:10;;;;;;;3.25;1.90;;;17.80;99.90;;;;;;4722549;30;20231;-82
2021/05/22 08:48:39;;;;;;;2.50;1.40;;;17.80;99.90;;;;;;4739254;30;20322;-83
2021/05/22 08:51:06;;;;;;;1.98;1.70;;;17.80;99.90;;;;;;4735228;30;20257;-81
2021/05/22 08:53:32;;;;;;;1.70;1.50;;;17.90;99.90;;;;;;4734419;30;20179;-83
2021/05/22 08:55:58;;;;;;;4.22;1.63;;;18.10;99.90;;;;;;4734467;30;20245;-82
2021/05/22 08:58:24;;;;;;;2.97;1.52;;;18.30;99.90;;;;;;4718739;30;20192;-82
2021/05/22 09:00:49;;;;;;;3.72;1.80;;;18.50;99.90;;;;;;4734200;30;20199;-81
2021/05/22 09:03:15;;;;;;;2.78;1.73;;;18.80;99.90;;;;;;4734422;30;20278;-82
2021/05/22 09:05:44;;;;;;;10.65;2.40;;;19.00;99.90;;;;;;4718570;30;20230;-81
2021/05/22 09:08:11;;;;;;;3.33;1.67;;;19.20;99.90;;;;;;4734437;30;20215;-82
2021/05/22 09:10:43;;;;;;;5.13;1.70;;;19.20;99.90;;;;;;4733855;30;20321;-82
2021/05/22 09:13:11;;;;;;;2.22;1.77;;;19.30;99.90;;;;;;4734420;30;20257;-83
2021/05/22 09:15:42;;;;;;;5.35;3.15;;;19.60;99.90;;;;;;4734225;30;20188;-82
2021/05/22 09:18:16;;;;;;;8.18;3.70;;;19.80;99.90;;;;;;4732652;30;20551;-82
2021/05/22 09:20:53;;;;;;;3.80;2.45;;;20.00;99.90;;;;;;4734322;30;20702;-85
2021/05/22 09:23:21;;;;;;;6.35;1.98;;;20.00;99.50;;;;;;4734477;30;20290;-83
2021/05/22 09:26:09;;;;;;;10.63;1.90;;;19.90;99.90;;;;;;4734421;30;20257;-84
2021/05/22 09:28:36;;;;;;;2.10;1.50;;;20.00;98.80;;;;;;4732772;30;20282;-83
2021/05/22 09:31:05;;;;;;;2.75;1.98;;;20.20;98.30;;;;;;4733373;30;20184;-84
2021/05/22 09:33:33;;;;;;;4.20;1.73;;;20.30;97.70;;;;;;4733262;30;20184;-83
2021/05/22 09:36:18;;;;;;;1.95;1.35;;;20.20;97.20;;;;;;4734976;30;20187;-83
2021/05/22 09:38:55;;;;;;;2.58;1.73;;;20.10;96.00;;;;;;4736081;30;20698;-85
2021/05/22 09:41:27;;;;;;;2.63;1.77;;;20.20;96.40;;;;;;4721414;30;20262;-82
2021/05/22 09:44:22;;;;;;;2.42;1.92;;;20.30;95.00;;;;;;4736383;30;20187;-84
2021/05/22 09:46:47;;;;;;;3.35;2.28;;;20.20;94.60;;;;;;4736832;30;20299;-85
2021/05/22 09:49:30;;;;;;;11.32;5.03;;;20.20;94.40;;;;;;4737198;30;20290;-82
2021/05/22 09:52:07;;;;;;;9.18;2.20;;;20.20;94.50;;;;;;4737612;30;20256;-81
2021/05/22 09:54:51;;;;;;;3.33;1.95;;;20.10;94.80;;;;;;4737466;30;20187;-82
2021/05/22 09:57:21;;;;;;;2.95;1.40;;;20.00;94.70;;;;;;4720966;30;20282;-82
2021/05/22 10:00:11;;;;;;;4.10;1.83;;;19.90;93.80;;;;;;4737532;30;20180;-83
2021/05/22 10:03:01;;;;;;;4.97;2.83;;;19.90;94.20;;;;;;4736969;30;20183;-82
2021/05/22 10:05:33;;;;;;;4.10;1.80;;;20.00;94.50;;;;;;4736906;30;20192;-83
2021/05/22 10:08:00;;;;;;;2.60;1.92;;;19.90;91.60;;;;;;4735472;30;20586;-82
2021/05/22 10:10:49;;;;;;;4.65;1.38;;;19.90;91.60;;;;;;4720871;30;20191;-82
2021/05/22 10:13:18;;;;;;;3.35;1.98;;;19.90;92.50;;;;;;4734676;30;20234;-83
2021/05/22 10:15:46;;;;;;;3.17;1.70;;;20.10;93.50;;;;;;4718754;30;20269;-83
2021/05/22 10:18:12;;;;;;;4.20;1.50;;;20.20;92.30;;;;;;4736973;30;20270;-84
2021/05/22 10:20:38;;;;;;;5.75;1.67;;;20.30;92.00;;;;;;4736484;30;20333;-83
2021/05/22 10:23:06;;;;;;;4.80;2.70;;;20.30;90.90;;;;;;4736418;30;20718;-83
2021/05/22 10:25:32;;;;;;;5.57;2.28;;;20.30;90.60;;;;;;4720791;30;20191;-82
2021/05/22 10:27:59;;;;;;;5.28;1.63;;;20.40;90.00;;;;;;4736499;30;20223;-83
2021/05/22 10:30:25;;;;;;;5.40;2.72;;;20.50;87.10;;;;;;4736114;30;20290;-84
2021/05/22 10:33:01;;;;;;;4.05;2.00;;;20.50;87.50;;;;;;4736181;30;20186;-84
2021/05/22 10:35:28;;;;;;;3.22;2.28;;;20.70;88.10;;;;;;4720225;30;20195;-84
2021/05/22 10:37:55;;;;;;;10.25;5.88;;;20.70;84.70;;;;;;4720371;30;20223;-83
2021/05/22 10:40:42;;;;;;;11.27;6.75;;;20.70;83.50;;;;;;4720204;30;20199;-83
2021/05/22 10:43:08;;;;;;;13.32;5.55;;;20.80;81.60;;;;;;4736236;30;20258;-85
2021/05/22 10:45:37;;;;;;;6.63;1.73;;;20.40;82.10;;;;;;4720412;30;20222;-85
2021/05/22 10:48:06;;;;;;;4.65;2.60;;;20.60;79.20;;;;;;4735697;30;20226;-83
2021/05/22 10:50:47;;;;;;;2.47;1.90;;;20.50;79.40;;;;;;4735812;30;20201;-81
2021/05/22 10:53:32;;;;;;;6.40;2.58;;;20.40;80.60;;;;;;4736743;30;20191;-82
2021/05/22 10:56:07;;;;;;;6.65;1.88;;;20.40;80.30;;;;;;4718669;30;20676;-83
2021/05/22 10:58:36;;;;;;;5.65;2.70;;;20.40;79.90;;;;;;4718934;30;20198;-85
2021/05/22 11:01:29;;;;;;;10.32;2.33;;;20.40;82.10;;;;;;4734605;30;20211;-83
2021/05/22 11:04:07;;;;;;;4.18;1.40;;;21.10;79.10;;;;;;4734550;30;20187;-83
2021/05/22 11:06:41;;;;;;;4.53;1.70;;;20.90;79.30;;;;;;4718428;30;20179;-84
2021/05/22 11:09:28;;;;;;;3.40;1.88;;;21.10;78.80;;;;;;4718458;30;20213;-84
2021/05/22 11:11:56;;;;;;;2.42;1.50;;;21.40;76.10;;;;;;4735257;30;20218;-84
2021/05/22 11:14:53;;;;;;;2.70;1.75;;;21.40;75.90;;;;;;4734095;30;20196;-82
2021/05/22 11:17:22;;;;;;;5.55;2.17;;;21.20;75.70;;;;;;4712981;30;20207;-82
2021/05/22 11:20:07;;;;;;;4.70;1.40;;;21.20;79.00;;;;;;4719810;30;20184;-83
2021/05/22 11:22:38;;;;;;;7.30;2.30;;;21.00;76.40;;;;;;4734897;30;20190;-83
2021/05/22 11:25:10;;;;;;;9.45;3.13;;;20.90;76.20;;;;;;4733582;30;20821;-81
2021/05/22 11:27:45;;;;;;;9.70;3.30;;;20.80;79.70;;;;;;4735654;30;20690;-79
2021/05/22 11:30:12;;;;;;;10.38;4.75;;;20.70;79.20;;;;;;4719659;30;20217;-81
2021/05/22 11:32:51;;;;;;;10.57;4.95;;;20.50;78.40;;;;;;4734445;30;20631;-82
2021/05/22 11:35:31;;;;;;;9.60;4.43;;;20.30;79.90;;;;;;4735077;30;20197;-82
2021/05/22 11:38:19;;;;;;;8.35;3.80;;;20.20;80.40;;;;;;4735536;30;20237;-81
2021/05/22 11:40:44;;;;;;;7.63;3.75;;;20.10;81.00;;;;;;4723052;30;20727;-81
2021/05/22 11:43:19;;;;;;;13.75;3.90;;;20.00;81.30;;;;;;4735461;30;20183;-80
2021/05/22 11:45:53;;;;;;;17.05;7.75;;;19.90;80.50;;;;;;4735634;30;20186;-81
2021/05/22 11:48:32;;;;;;;8.57;4.18;;;19.80;81.90;;;;;;4734983;30;20218;-81
2021/05/22 11:50:57;;;;;;;8.95;3.50;;;19.70;81.40;;;;;;4735254;30;20218;-83
2021/05/22 11:53:27;;;;;;;9.95;3.78;;;19.70;81.80;;;;;;4735524;30;20229;-81
2021/05/22 11:56:02;;;;;;;10.35;3.60;;;19.60;81.30;;;;;;4735671;30;20191;-82
2021/05/22 11:58:29;;;;;;;15.05;7.35;;;19.50;81.90;;;;;;4735376;30;20589;-82
2021/05/22 12:01:04;;;;;;;7.43;3.10;;;19.40;82.30;;;;;;4735139;30;20282;-81
2021/05/22 12:03:30;;;;;;;7.78;3.78;;;19.40;83.30;;;;;;4735415;30;20180;-81
2021/05/22 12:05:56;;;;;;;6.53;3.70;;;;;;;;;;4735152;30;20685;-82
2021/05/22 12:08:27;;;;;;;15.00;4.85;;;19.10;82.20;;;;;;4734972;30;20223;-81
2021/05/22 12:10:52;;;;;;;5.40;3.60;;;19.20;85.60;;;;;;4735243;30;20190;-81
2021/05/22 12:13:18;;;;;;;3.15;2.00;;;19.30;88.10;;;;;;4734555;30;20997;-82
2021/05/22 12:15:44;;;;;;;5.47;2.28;;;19.00;87.70;;;;;;4734857;30;20195;-80
2021/05/22 12:18:14;;;;;;;3.90;2.78;;;18.80;90.40;;;;;;4734869;30;20195;-80
2021/05/22 12:20:49;;;;;;;5.38;2.00;;;18.20;91.70;;;;;;4734511;30;20247;-80
2021/05/22 12:23:33;;;;;;;5.78;1.90;;;18.30;91.50;;;;;;4718832;30;20202;-80
2021/05/22 12:26:01;;;;;;;4.20;2.00;;;18.10;93.90;;;;;;4734610;30;20522;-80
2021/05/22 12:28:28;;;;;;;6.93;2.08;;;18.00;93.10;;;;;;4718895;30;20222;-82
2021/05/22 12:30:57;;;;;;;6.32;1.80;;;17.80;93.60;;;;;;4734952;30;20187;-80
2021/05/22 12:33:24;;;;;;;4.28;1.95;;;17.60;94.80;;;;;;4734637;30;20185;-80
2021/05/22 12:36:05;;;;;;;4.68;1.98;;;17.60;95.50;;;;;;4734693;30;20191;-80
2021/05/22 12:38:39;;;;;;;7.22;2.00;;;17.40;97.50;;;;;;4734622;30;20187;-81
2021/05/22 12:41:05;;;;;;;3.83;2.08;;;17.30;98.60;;;;;;4734763;30;20191;-82
2021/05/22 12:43:41;;;;;;;5.47;2.42;;;17.20;99.70;;;;;;4734677;30;20776;-81
2021/05/22 12:46:20;;;;;;;3.47;2.30;;;17.00;99.90;;;;;;4719345;30;20195;-82
2021/05/22 12:48:46;;;;;;;3.00;2.17;;;16.90;99.90;;;;;;4721341;30;20199;-80
2021/05/22 12:51:22;;;;;;;4.15;2.72;;;16.80;99.90;;;;;;4740067;30;20214;-80
2021/05/22 12:53:48;;;;;;;2.42;2.20;;;16.50;99.90;;;;;;4740848;30;20188;-82